X_preSS Matterhorn — PBHI — position and weather

sailwx.info

Track history (hours):
 
Tides and Currents Weather Stations Pressure Air Temp Water Temp Dewpoint Dewpoint Depression Visibility Wind Speed Wind Dir Waves Ship Positions

X_preSS Matterhorn

Last reported at 2018-Jun-22 08:12 UTC. Time now 2018-Jun-22 09:17 UTC.
Position N 47°46' W 005°30'.

Length 134 m; draft 6.6 m.

Type: Cargo ship. MMSI: 244597000.

Date/timePositionNaut miles runAvg speedWind from/ knotsBaromVisibWave heightAir tempDewpointWater temp
2018-Jun-22 08:12N 47°46' W 005°30'314.3
2018-Jun-22 08:00N 47°49' W 005°32'714.3
2018-Jun-22 07:30N 47°55' W 005°36'1414.5
2018-Jun-22 06:31N 48°09' W 005°44'014.8
2018-Jun-22 06:30N 48°09' W 005°44'2215.0
2018-Jun-22 05:02N 48°30' W 005°56'115.3
2018-Jun-22 04:58N 48°30' W 005°56'714.7
2018-Jun-22 04:28N 48°38' W 005°57'715.8
2018-Jun-22 04:00N 48°44' W 005°53'815.5
2018-Jun-22 03:30N 48°51' W 005°48'2515.1
2018-Jun-22 01:52N 49°05' W 005°16'515.0
2018-Jun-22 01:30N 49°07' W 005°09'814.7
2018-Jun-22 00:59N 49°11' W 004°58'7014.7
2018-Jun-21 20:15N 49°47' W 003°26'415.8
2018-Jun-21 20:01N 49°49' W 003°21'815.7
2018-Jun-21 19:30N 49°52' W 003°11'815.9
2018-Jun-21 19:00N 49°56' W 002°60'815.4
2018-Jun-21 18:30N 49°59' W 002°49'815.4
2018-Jun-21 18:00N 50°01' W 002°37'815.1
2018-Jun-21 17:29N 50°04' W 002°25'6412.8
2018-Jun-21 12:30N 50°22' W 000°50'714.4
2018-Jun-21 12:00N 50°24' W 000°39'714.7
2018-Jun-21 11:30N 50°26' W 000°28'815.3
2018-Jun-21 11:00N 50°28' W 000°17'815.6
2018-Jun-21 10:28N 50°30' W 000°04'815.6
2018-Jun-21 09:59N 50°32' E 000°08'815.8
2018-Jun-21 09:30N 50°35' E 000°19'815.9
2018-Jun-21 09:00N 50°38' E 000°31'815.8
2018-Jun-21 08:30N 50°41' E 000°42'815.2
2018-Jun-21 08:00N 50°46' E 000°52'714.9
2018-Jun-21 07:30N 50°50' E 001°01'714.2
2018-Jun-21 07:00N 50°55' E 001°10'713.4
2018-Jun-21 06:30N 50°59' E 001°17'612.2
2018-Jun-21 06:01N 51°03' E 001°25'612.1
2018-Jun-21 05:30N 51°08' E 001°31'612.5
2018-Jun-21 05:01N 51°14' E 001°35'612.9
2018-Jun-21 04:31N 51°20' E 001°35'612.9
2018-Jun-21 04:01N 51°25' E 001°29'611.7
2018-Jun-21 03:30N 51°28' E 001°21'612.0
2018-Jun-21 03:00N 51°29' E 001°11'611.0
2018-Jun-21 02:30N 51°30' E 001°03'611.8
2018-Jun-21 02:01N 51°29' E 000°53'611.6
2018-Jun-21 01:30N 51°30' E 000°44'713.1
2018-Jun-21 01:00N 51°30' E 000°33'611.2
2018-Jun-21 00:30N 51°27' E 000°26'4 7.3
2018-Jun-21 00:00N 51°27' E 000°20'0 0.0
2018-Jun-20 23:30N 51°27' E 000°20'0 0.0
2018-Jun-20 23:00N 51°27' E 000°20'0 0.0
2018-Jun-20 22:30N 51°27' E 000°20'0 0.0
2018-Jun-20 22:00N 51°27' E 000°20'0 0.0
2018-Jun-20 21:30N 51°27' E 000°20'0 0.0
2018-Jun-20 21:00N 51°27' E 000°20'0 0.0
2018-Jun-20 20:30N 51°27' E 000°20'0 0.0
2018-Jun-20 20:00N 51°27' E 000°20'0 0.0
2018-Jun-20 19:30N 51°27' E 000°20'0 0.0
2018-Jun-20 19:00N 51°27' E 000°20'0 0.0
2018-Jun-20 18:30N 51°27' E 000°20'0 0.0
2018-Jun-20 18:00N 51°27' E 000°20'0 0.0
2018-Jun-20 17:30N 51°27' E 000°20'0 0.0
2018-Jun-20 17:01N 51°27' E 000°20'0 0.0
2018-Jun-20 16:30N 51°27' E 000°20'0 0.0
2018-Jun-20 16:00N 51°27' E 000°20'0 0.0
2018-Jun-20 15:30N 51°27' E 000°20'0 0.0
2018-Jun-20 15:00N 51°27' E 000°20'0 0.0
2018-Jun-20 14:30N 51°27' E 000°20'0 0.0
2018-Jun-20 14:00N 51°27' E 000°20'0 0.0
2018-Jun-20 13:30N 51°27' E 000°20'0 0.0
2018-Jun-20 13:00N 51°27' E 000°20'0 0.0
2018-Jun-20 12:30N 51°27' E 000°20'0 0.0
2018-Jun-20 12:00N 51°27' E 000°20'0 0.0
2018-Jun-20 11:30N 51°27' E 000°20'0 0.0
2018-Jun-20 11:00N 51°27' E 000°20'0 0.0
2018-Jun-20 10:30N 51°27' E 000°20'0 0.0
2018-Jun-20 10:00N 51°27' E 000°20'0 0.0
2018-Jun-20 09:30N 51°27' E 000°20'0 0.0
2018-Jun-20 09:00N 51°27' E 000°20'0 0.0
2018-Jun-20 08:30N 51°27' E 000°20'0 0.0
2018-Jun-20 08:00N 51°27' E 000°20'0 0.0
2018-Jun-20 07:31N 51°27' E 000°20'0 0.0
2018-Jun-20 07:00N 51°27' E 000°20'0 0.0
2018-Jun-20 06:30N 51°27' E 000°20'0 0.0
2018-Jun-20 06:00N 51°27' E 000°20'0 0.0
2018-Jun-20 05:30N 51°27' E 000°20'0 0.1
2018-Jun-20 05:00N 51°27' E 000°20'1 2.3
2018-Jun-20 04:30N 51°27' E 000°22'4 7.7
2018-Jun-20 04:00N 51°28' E 000°27'510.3
2018-Jun-20 03:30N 51°30' E 000°35'713.1
2018-Jun-20 03:00N 51°29' E 000°46'714.4
2018-Jun-20 02:31N 51°29' E 000°57'713.6
2018-Jun-20 02:00N 51°29' E 001°08'714.3
2018-Jun-20 01:30N 51°29' E 001°19'714.9
2018-Jun-20 01:00N 51°27' E 001°31'611.2
2018-Jun-20 00:31N 51°30' E 001°39'715.0
2018-Jun-20 00:01N 51°33' E 001°50'5 9.9
2018-Jun-19 23:31N 51°35' E 001°57'714.0
2018-Jun-19 23:00N 51°41' E 002°04'713.7
2018-Jun-19 22:30N 51°47' E 002°10'713.4
2018-Jun-19 22:00N 51°52' E 002°16'3912.4
2018-Jun-19 18:52N 52°25' E 002°50'512.4
2018-Jun-19 18:27N 52°30' E 002°54'1212.7
2018-Jun-19 17:31N 52°40' E 003°03'113.3
2018-Jun-19 17:26N 52°41' E 003°03'40513.8
2018-Jun-18 12:00N 57°47' E 010°51'815.5
2018-Jun-18 11:30N 57°42' E 011°01'815.6
2018-Jun-18 11:00N 57°36' E 011°11'815.5
2018-Jun-18 10:30N 57°30' E 011°21'714.9
2018-Jun-18 10:00N 57°24' E 011°28'814.9
2018-Jun-18 09:30N 57°17' E 011°33'7915.1
2018-Jun-18 04:15N 56°06' E 012°35'414.7
2018-Jun-18 04:00N 56°03' E 012°40'815.1
2018-Jun-18 03:30N 55°56' E 012°44'714.0
2018-Jun-18 03:00N 55°49' E 012°43'713.7
2018-Jun-18 02:31N 55°42' E 012°41'611.4
2018-Jun-18 02:00N 55°36' E 012°42'611.5
2018-Jun-18 01:30N 55°31' E 012°43'713.7
2018-Jun-18 01:00N 55°24' E 012°41'612.5
2018-Jun-18 00:30N 55°18' E 012°43'714.5
2018-Jun-18 00:00N 55°15' E 012°55'714.7
2018-Jun-17 23:30N 55°11' E 013°05'1915.3
2018-Jun-17 22:15N 54°57' E 013°29'415.5
2018-Jun-17 21:59N 54°54' E 013°34'2115.0
2018-Jun-17 20:34N 54°41' E 014°03'115.6
2018-Jun-17 20:30N 54°41' E 014°05'815.5
2018-Jun-17 20:00N 54°39' E 014°17'715.1
2018-Jun-17 19:30N 54°38' E 014°30'1415.5
2018-Jun-17 18:35N 54°40' E 014°54'315.7
2018-Jun-17 18:23N 54°41' E 015°00'615.7
2018-Jun-17 18:00N 54°42' E 015°10'915.5
2018-Jun-17 17:27N 54°43' E 015°25'7015.2
2018-Jun-17 12:51N 54°55' E 017°24'615.7
2018-Jun-17 12:29N 54°55' E 017°35'715.7
2018-Jun-17 12:00N 54°55' E 017°47'815.8
2018-Jun-17 11:30N 54°56' E 018°01'815.8
2018-Jun-17 11:01N 54°56' E 018°15'815.7
2018-Jun-17 10:30N 54°55' E 018°28'815.8
2018-Jun-17 10:00N 54°51' E 018°40'816.0
2018-Jun-17 09:30N 54°46' E 018°51'815.1
2018-Jun-17 09:00N 54°39' E 018°57'815.5
2018-Jun-17 08:30N 54°33' E 018°49'714.0
2018-Jun-17 08:00N 54°32' E 018°37'4 7.6
2018-Jun-17 07:30N 54°33' E 018°31'0 0.1
2018-Jun-17 06:59N 54°33' E 018°31'0 0.0
2018-Jun-17 06:29N 54°33' E 018°31'0 0.0
2018-Jun-17 05:59N 54°33' E 018°31'0 0.0
2018-Jun-17 05:29N 54°33' E 018°31'0 0.0
2018-Jun-17 04:59N 54°33' E 018°31'0 0.0
2018-Jun-17 04:29N 54°33' E 018°31'0 0.0
2018-Jun-17 03:59N 54°33' E 018°31'0 0.0
2018-Jun-17 03:29N 54°33' E 018°31'0 0.0
2018-Jun-17 02:59N 54°33' E 018°31'0 0.0
2018-Jun-17 02:29N 54°33' E 018°31'0 0.0
2018-Jun-17 01:59N 54°33' E 018°31'0 0.0
2018-Jun-17 01:29N 54°33' E 018°31'0 0.0
2018-Jun-17 00:59N 54°33' E 018°31'0 0.0
2018-Jun-17 00:29N 54°33' E 018°31'0 0.0
2018-Jun-16 23:59N 54°33' E 018°31'0 0.0
2018-Jun-16 23:29N 54°33' E 018°31'0 0.0
2018-Jun-16 22:59N 54°33' E 018°31'0 0.0
2018-Jun-16 22:29N 54°33' E 018°31'0 0.0
2018-Jun-16 21:58N 54°33' E 018°31'0 0.0
2018-Jun-16 21:28N 54°33' E 018°31'0 0.0
2018-Jun-16 20:58N 54°33' E 018°31'0 0.0
2018-Jun-16 20:28N 54°33' E 018°31'0 0.0
2018-Jun-16 19:58N 54°33' E 018°31'0 0.0
2018-Jun-16 19:28N 54°33' E 018°31'0 0.0
2018-Jun-16 18:58N 54°33' E 018°31'0 0.0
2018-Jun-16 18:28N 54°33' E 018°31'0 0.0
2018-Jun-16 17:58N 54°33' E 018°31'0 0.0
2018-Jun-16 17:28N 54°33' E 018°31'0 0.0
2018-Jun-16 16:58N 54°33' E 018°31'0 0.0
2018-Jun-16 16:28N 54°33' E 018°31'0 0.0
2018-Jun-16 15:58N 54°33' E 018°31'0 0.0
2018-Jun-16 15:28N 54°33' E 018°31'0 0.0
2018-Jun-16 14:58N 54°33' E 018°31'0 0.0
2018-Jun-16 14:28N 54°33' E 018°31'0 0.0
2018-Jun-16 13:58N 54°33' E 018°31'0 0.0
2018-Jun-16 13:28N 54°33' E 018°31'0 0.0
2018-Jun-16 12:58N 54°33' E 018°31'0 0.0
2018-Jun-16 12:28N 54°33' E 018°31'0 0.0
2018-Jun-16 11:58N 54°33' E 018°31'0 0.0
2018-Jun-16 11:28N 54°33' E 018°31'0 0.0
2018-Jun-16 10:58N 54°33' E 018°31'0 0.0
2018-Jun-16 10:28N 54°33' E 018°31'0 0.0
2018-Jun-16 09:58N 54°33' E 018°31'0 0.0
2018-Jun-16 09:28N 54°33' E 018°31'0 0.0
2018-Jun-16 08:58N 54°33' E 018°31'0 0.0
2018-Jun-16 08:28N 54°33' E 018°31'0 0.0
2018-Jun-16 08:00N 54°33' E 018°31'3 5.4
2018-Jun-16 07:31N 54°32' E 018°35'612.0
2018-Jun-16 07:00N 54°32' E 018°46'713.0
2018-Jun-16 06:30N 54°37' E 018°54'714.3
2018-Jun-16 06:00N 54°44' E 018°57'612.9
2018-Jun-16 05:30N 54°49' E 018°51'714.7
2018-Jun-16 05:00N 54°53' E 018°41'713.9
2018-Jun-16 04:30N 54°55' E 018°29'714.9
2018-Jun-16 04:00N 54°55' E 018°16'714.7
2018-Jun-16 03:30N 54°54' E 018°03'714.7
2018-Jun-16 03:00N 54°54' E 017°51'814.6
2018-Jun-16 02:27N 54°53' E 017°37'1014.7
2018-Jun-16 01:46N 54°53' E 017°19'414.9
2018-Jun-16 01:30N 54°52' E 017°13'1414.7
2018-Jun-16 00:32N 54°48' E 016°49'5814.9
2018-Jun-15 20:37N 54°38' E 015°09'214.9
2018-Jun-15 20:30N 54°38' E 015°07'1114.8
2018-Jun-15 19:47N 54°37' E 014°48'414.8
2018-Jun-15 19:30N 54°36' E 014°41'814.8
2018-Jun-15 18:58N 54°35' E 014°27'1214.4
2018-Jun-15 18:07N 54°39' E 014°08'914.6
2018-Jun-15 17:30N 54°44' E 013°55'1815.0
2018-Jun-15 16:18N 54°55' E 013°30'1314.6
2018-Jun-15 15:23N 55°04' E 013°14'1214.5
2018-Jun-15 14:34N 55°12' E 012°58'114.6
2018-Jun-15 14:29N 55°13' E 012°56'714.6
2018-Jun-15 13:58N 55°17' E 012°45'511.7
2018-Jun-15 13:30N 55°21' E 012°38'613.0
2018-Jun-15 13:00N 55°27' E 012°40'713.1
2018-Jun-15 12:30N 55°33' E 012°42'714.3
2018-Jun-15 12:00N 55°41' E 012°41'714.7
2018-Jun-15 11:30N 55°48' E 012°42'714.9
2018-Jun-15 11:00N 55°55' E 012°39'612.6
2018-Jun-15 10:30N 56°01' E 012°42'0 1.0
2018-Jun-15 10:00N 56°02' E 012°42'0 0.0
2018-Jun-15 09:31N 56°02' E 012°42'0 0.0
2018-Jun-15 09:01N 56°02' E 012°42'0 0.0
2018-Jun-15 08:31N 56°02' E 012°42'0 0.0
2018-Jun-15 08:00N 56°02' E 012°42'0 0.0
2018-Jun-15 07:31N 56°02' E 012°42'0 0.0
2018-Jun-15 07:01N 56°02' E 012°42'0 0.0
2018-Jun-15 06:31N 56°02' E 012°42'0 0.0
2018-Jun-15 06:01N 56°02' E 012°42'0 0.0
2018-Jun-15 05:31N 56°02' E 012°41'0 0.0
2018-Jun-15 05:01N 56°02' E 012°41'0 0.0
2018-Jun-15 04:31N 56°02' E 012°42'0 0.0
2018-Jun-15 04:01N 56°02' E 012°42'0 0.0
2018-Jun-15 03:30N 56°02' E 012°42'0 0.0
2018-Jun-15 03:00N 56°02' E 012°42'0 0.0
2018-Jun-15 02:31N 56°02' E 012°42'0 0.1
2018-Jun-15 02:01N 56°02' E 012°41'0 0.1
2018-Jun-15 01:30N 56°02' E 012°42'0 0.0
2018-Jun-15 01:01N 56°02' E 012°42'0 0.0
2018-Jun-15 00:31N 56°02' E 012°42'0 0.0
2018-Jun-15 00:01N 56°02' E 012°42'0 0.0
2018-Jun-14 23:31N 56°02' E 012°42'0 0.0
2018-Jun-14 23:01N 56°02' E 012°42'0 0.0
2018-Jun-14 22:31N 56°02' E 012°42'0 0.0
2018-Jun-14 22:00N 56°02' E 012°42'0 0.0
2018-Jun-14 21:31N 56°02' E 012°42'0 0.0
2018-Jun-14 20:59N 56°02' E 012°42'0 0.0
2018-Jun-14 20:31N 56°02' E 012°42'0 0.0
2018-Jun-14 20:01N 56°02' E 012°42'1 2.6
2018-Jun-14 19:30N 56°00' E 012°42'3 5.3
2018-Jun-14 19:01N 56°03' E 012°39'5 9.6
2018-Jun-14 18:31N 56°06' E 012°33'83 9.7
2018-Jun-14 09:59N 57°21' E 011°28'510.2
2018-Jun-14 09:29N 57°26' E 011°25'510.0
2018-Jun-14 09:00N 57°30' E 011°19'510.8
2018-Jun-14 08:31N 57°33' E 011°12'612.4
2018-Jun-14 08:01N 57°38' E 011°04'43212.8
2018-Jun-12 22:07N 52°14' E 002°46'314.1
2018-Jun-12 21:54N 52°11' E 002°43'613.9
2018-Jun-12 21:26N 52°06' E 002°37'2613.2
2018-Jun-12 19:28N 51°46' E 002°10'612.4
2018-Jun-12 19:00N 51°42' E 002°04'612.9
2018-Jun-12 18:30N 51°37' E 001°57'713.2
2018-Jun-12 18:00N 51°33' E 001°48'713.9
2018-Jun-12 17:31N 51°30' E 001°38'612.7
2018-Jun-12 17:01N 51°25' E 001°33'3 5.1
2018-Jun-12 16:31N 51°26' E 001°29'510.3
2018-Jun-12 16:01N 51°28' E 001°22'510.7
2018-Jun-12 15:31N 51°29' E 001°13'612.4
2018-Jun-12 15:01N 51°30' E 001°03'816.4
2018-Jun-12 14:31N 51°29' E 000°50'917.5
2018-Jun-12 14:01N 51°30' E 000°36'612.7
2018-Jun-12 13:31N 51°28' E 000°27'4 8.4
2018-Jun-12 13:01N 51°27' E 000°20'0 0.1
2018-Jun-12 12:31N 51°27' E 000°20'0 0.0
2018-Jun-12 12:00N 51°27' E 000°20'0 0.0
2018-Jun-12 11:31N 51°27' E 000°20'0 0.0
2018-Jun-12 11:01N 51°27' E 000°20'0 0.0
2018-Jun-12 10:30N 51°27' E 000°20'0 0.0
2018-Jun-12 10:00N 51°27' E 000°20'0 0.0
2018-Jun-12 09:30N 51°27' E 000°20'0 0.0
2018-Jun-12 09:01N 51°27' E 000°20'0 0.0
2018-Jun-12 08:31N 51°27' E 000°20'  
Track history (hours):
 
Tides and Currents Weather Stations Pressure Air Temp Water Temp Dewpoint Dewpoint Depression Visibility Wind Speed Wind Dir Waves Ship Positions

X_preSS Matterhorn

Last reported at 2018-Jun-22 08:12 UTC. Time now 2018-Jun-22 09:17 UTC.
Position N 47°46' W 005°30'.

Length 134 m; draft 6.6 m.

Type: Cargo ship. MMSI: 244597000.

Date/timePositionNaut miles runAvg speedWind from/ knotsBaromVisibWave heightAir tempDewpointWater temp
2018-Jun-22 08:12N 47°46' W 005°30'314.3
2018-Jun-22 08:00N 47°49' W 005°32'714.3
2018-Jun-22 07:30N 47°55' W 005°36'1414.5
2018-Jun-22 06:31N 48°09' W 005°44'014.8
2018-Jun-22 06:30N 48°09' W 005°44'2215.0
2018-Jun-22 05:02N 48°30' W 005°56'115.3
2018-Jun-22 04:58N 48°30' W 005°56'714.7
2018-Jun-22 04:28N 48°38' W 005°57'715.8
2018-Jun-22 04:00N 48°44' W 005°53'815.5
2018-Jun-22 03:30N 48°51' W 005°48'2515.1
2018-Jun-22 01:52N 49°05' W 005°16'515.0
2018-Jun-22 01:30N 49°07' W 005°09'814.7
2018-Jun-22 00:59N 49°11' W 004°58'7014.7
2018-Jun-21 20:15N 49°47' W 003°26'415.8
2018-Jun-21 20:01N 49°49' W 003°21'815.7
2018-Jun-21 19:30N 49°52' W 003°11'815.9
2018-Jun-21 19:00N 49°56' W 002°60'815.4
2018-Jun-21 18:30N 49°59' W 002°49'815.4
2018-Jun-21 18:00N 50°01' W 002°37'815.1
2018-Jun-21 17:29N 50°04' W 002°25'6412.8
2018-Jun-21 12:30N 50°22' W 000°50'714.4
2018-Jun-21 12:00N 50°24' W 000°39'714.7
2018-Jun-21 11:30N 50°26' W 000°28'815.3
2018-Jun-21 11:00N 50°28' W 000°17'815.6
2018-Jun-21 10:28N 50°30' W 000°04'815.6
2018-Jun-21 09:59N 50°32' E 000°08'815.8
2018-Jun-21 09:30N 50°35' E 000°19'815.9
2018-Jun-21 09:00N 50°38' E 000°31'815.8
2018-Jun-21 08:30N 50°41' E 000°42'815.2
2018-Jun-21 08:00N 50°46' E 000°52'714.9
2018-Jun-21 07:30N 50°50' E 001°01'714.2
2018-Jun-21 07:00N 50°55' E 001°10'713.4
2018-Jun-21 06:30N 50°59' E 001°17'612.2
2018-Jun-21 06:01N 51°03' E 001°25'612.1
2018-Jun-21 05:30N 51°08' E 001°31'612.5
2018-Jun-21 05:01N 51°14' E 001°35'612.9
2018-Jun-21 04:31N 51°20' E 001°35'612.9
2018-Jun-21 04:01N 51°25' E 001°29'611.7
2018-Jun-21 03:30N 51°28' E 001°21'612.0
2018-Jun-21 03:00N 51°29' E 001°11'611.0
2018-Jun-21 02:30N 51°30' E 001°03'611.8
2018-Jun-21 02:01N 51°29' E 000°53'611.6
2018-Jun-21 01:30N 51°30' E 000°44'713.1
2018-Jun-21 01:00N 51°30' E 000°33'611.2
2018-Jun-21 00:30N 51°27' E 000°26'4 7.3
2018-Jun-21 00:00N 51°27' E 000°20'0 0.0
2018-Jun-20 23:30N 51°27' E 000°20'0 0.0
2018-Jun-20 23:00N 51°27' E 000°20'0 0.0
2018-Jun-20 22:30N 51°27' E 000°20'0 0.0
2018-Jun-20 22:00N 51°27' E 000°20'0 0.0
2018-Jun-20 21:30N 51°27' E 000°20'0 0.0
2018-Jun-20 21:00N 51°27' E 000°20'0 0.0
2018-Jun-20 20:30N 51°27' E 000°20'0 0.0
2018-Jun-20 20:00N 51°27' E 000°20'0 0.0
2018-Jun-20 19:30N 51°27' E 000°20'0 0.0
2018-Jun-20 19:00N 51°27' E 000°20'0 0.0
2018-Jun-20 18:30N 51°27' E 000°20'0 0.0
2018-Jun-20 18:00N 51°27' E 000°20'0 0.0
2018-Jun-20 17:30N 51°27' E 000°20'0 0.0
2018-Jun-20 17:01N 51°27' E 000°20'0 0.0
2018-Jun-20 16:30N 51°27' E 000°20'0 0.0
2018-Jun-20 16:00N 51°27' E 000°20'0 0.0
2018-Jun-20 15:30N 51°27' E 000°20'0 0.0
2018-Jun-20 15:00N 51°27' E 000°20'0 0.0
2018-Jun-20 14:30N 51°27' E 000°20'0 0.0
2018-Jun-20 14:00N 51°27' E 000°20'0 0.0
2018-Jun-20 13:30N 51°27' E 000°20'0 0.0
2018-Jun-20 13:00N 51°27' E 000°20'0 0.0
2018-Jun-20 12:30N 51°27' E 000°20'0 0.0
2018-Jun-20 12:00N 51°27' E 000°20'0 0.0
2018-Jun-20 11:30N 51°27' E 000°20'0 0.0
2018-Jun-20 11:00N 51°27' E 000°20'0 0.0
2018-Jun-20 10:30N 51°27' E 000°20'0 0.0
2018-Jun-20 10:00N 51°27' E 000°20'0 0.0
2018-Jun-20 09:30N 51°27' E 000°20'0 0.0
2018-Jun-20 09:00N 51°27' E 000°20'0 0.0
2018-Jun-20 08:30N 51°27' E 000°20'0 0.0
2018-Jun-20 08:00N 51°27' E 000°20'0 0.0
2018-Jun-20 07:31N 51°27' E 000°20'0 0.0
2018-Jun-20 07:00N 51°27' E 000°20'0 0.0
2018-Jun-20 06:30N 51°27' E 000°20'0 0.0
2018-Jun-20 06:00N 51°27' E 000°20'0 0.0
2018-Jun-20 05:30N 51°27' E 000°20'0 0.1
2018-Jun-20 05:00N 51°27' E 000°20'1 2.3
2018-Jun-20 04:30N 51°27' E 000°22'4 7.7
2018-Jun-20 04:00N 51°28' E 000°27'510.3
2018-Jun-20 03:30N 51°30' E 000°35'713.1
2018-Jun-20 03:00N 51°29' E 000°46'714.4
2018-Jun-20 02:31N 51°29' E 000°57'713.6
2018-Jun-20 02:00N 51°29' E 001°08'714.3
2018-Jun-20 01:30N 51°29' E 001°19'714.9
2018-Jun-20 01:00N 51°27' E 001°31'611.2
2018-Jun-20 00:31N 51°30' E 001°39'715.0
2018-Jun-20 00:01N 51°33' E 001°50'5 9.9
2018-Jun-19 23:31N 51°35' E 001°57'714.0
2018-Jun-19 23:00N 51°41' E 002°04'713.7
2018-Jun-19 22:30N 51°47' E 002°10'713.4
2018-Jun-19 22:00N 51°52' E 002°16'3912.4
2018-Jun-19 18:52N 52°25' E 002°50'512.4
2018-Jun-19 18:27N 52°30' E 002°54'1212.7
2018-Jun-19 17:31N 52°40' E 003°03'113.3
2018-Jun-19 17:26N 52°41' E 003°03'40513.8
2018-Jun-18 12:00N 57°47' E 010°51'815.5
2018-Jun-18 11:30N 57°42' E 011°01'815.6
2018-Jun-18 11:00N 57°36' E 011°11'815.5
2018-Jun-18 10:30N 57°30' E 011°21'714.9
2018-Jun-18 10:00N 57°24' E 011°28'814.9
2018-Jun-18 09:30N 57°17' E 011°33'7915.1
2018-Jun-18 04:15N 56°06' E 012°35'414.7
2018-Jun-18 04:00N 56°03' E 012°40'815.1
2018-Jun-18 03:30N 55°56' E 012°44'714.0
2018-Jun-18 03:00N 55°49' E 012°43'713.7
2018-Jun-18 02:31N 55°42' E 012°41'611.4
2018-Jun-18 02:00N 55°36' E 012°42'611.5
2018-Jun-18 01:30N 55°31' E 012°43'713.7
2018-Jun-18 01:00N 55°24' E 012°41'612.5
2018-Jun-18 00:30N 55°18' E 012°43'714.5
2018-Jun-18 00:00N 55°15' E 012°55'714.7
2018-Jun-17 23:30N 55°11' E 013°05'1915.3
2018-Jun-17 22:15N 54°57' E 013°29'415.5
2018-Jun-17 21:59N 54°54' E 013°34'2115.0
2018-Jun-17 20:34N 54°41' E 014°03'115.6
2018-Jun-17 20:30N 54°41' E 014°05'815.5
2018-Jun-17 20:00N 54°39' E 014°17'715.1
2018-Jun-17 19:30N 54°38' E 014°30'1415.5
2018-Jun-17 18:35N 54°40' E 014°54'315.7
2018-Jun-17 18:23N 54°41' E 015°00'615.7
2018-Jun-17 18:00N 54°42' E 015°10'915.5
2018-Jun-17 17:27N 54°43' E 015°25'7015.2
2018-Jun-17 12:51N 54°55' E 017°24'615.7
2018-Jun-17 12:29N 54°55' E 017°35'715.7
2018-Jun-17 12:00N 54°55' E 017°47'815.8
2018-Jun-17 11:30N 54°56' E 018°01'815.8
2018-Jun-17 11:01N 54°56' E 018°15'815.7
2018-Jun-17 10:30N 54°55' E 018°28'815.8
2018-Jun-17 10:00N 54°51' E 018°40'816.0
2018-Jun-17 09:30N 54°46' E 018°51'815.1
2018-Jun-17 09:00N 54°39' E 018°57'815.5
2018-Jun-17 08:30N 54°33' E 018°49'714.0
2018-Jun-17 08:00N 54°32' E 018°37'4 7.6
2018-Jun-17 07:30N 54°33' E 018°31'0 0.1
2018-Jun-17 06:59N 54°33' E 018°31'0 0.0
2018-Jun-17 06:29N 54°33' E 018°31'0 0.0
2018-Jun-17 05:59N 54°33' E 018°31'0 0.0
2018-Jun-17 05:29N 54°33' E 018°31'0 0.0
2018-Jun-17 04:59N 54°33' E 018°31'0 0.0
2018-Jun-17 04:29N 54°33' E 018°31'0 0.0
2018-Jun-17 03:59N 54°33' E 018°31'0 0.0
2018-Jun-17 03:29N 54°33' E 018°31'0 0.0
2018-Jun-17 02:59N 54°33' E 018°31'0 0.0
2018-Jun-17 02:29N 54°33' E 018°31'0 0.0
2018-Jun-17 01:59N 54°33' E 018°31'0 0.0
2018-Jun-17 01:29N 54°33' E 018°31'0 0.0
2018-Jun-17 00:59N 54°33' E 018°31'0 0.0
2018-Jun-17 00:29N 54°33' E 018°31'0 0.0
2018-Jun-16 23:59N 54°33' E 018°31'0 0.0
2018-Jun-16 23:29N 54°33' E 018°31'0 0.0
2018-Jun-16 22:59N 54°33' E 018°31'0 0.0
2018-Jun-16 22:29N 54°33' E 018°31'0 0.0
2018-Jun-16 21:58N 54°33' E 018°31'0 0.0
2018-Jun-16 21:28N 54°33' E 018°31'0 0.0
2018-Jun-16 20:58N 54°33' E 018°31'0 0.0
2018-Jun-16 20:28N 54°33' E 018°31'0 0.0
2018-Jun-16 19:58N 54°33' E 018°31'0 0.0
2018-Jun-16 19:28N 54°33' E 018°31'0 0.0
2018-Jun-16 18:58N 54°33' E 018°31'0 0.0
2018-Jun-16 18:28N 54°33' E 018°31'0 0.0
2018-Jun-16 17:58N 54°33' E 018°31'0 0.0
2018-Jun-16 17:28N 54°33' E 018°31'0 0.0
2018-Jun-16 16:58N 54°33' E 018°31'0 0.0
2018-Jun-16 16:28N 54°33' E 018°31'0 0.0
2018-Jun-16 15:58N 54°33' E 018°31'0 0.0
2018-Jun-16 15:28N 54°33' E 018°31'0 0.0
2018-Jun-16 14:58N 54°33' E 018°31'0 0.0
2018-Jun-16 14:28N 54°33' E 018°31'0 0.0
2018-Jun-16 13:58N 54°33' E 018°31'0 0.0
2018-Jun-16 13:28N 54°33' E 018°31'0 0.0
2018-Jun-16 12:58N 54°33' E 018°31'0 0.0
2018-Jun-16 12:28N 54°33' E 018°31'0 0.0
2018-Jun-16 11:58N 54°33' E 018°31'0 0.0
2018-Jun-16 11:28N 54°33' E 018°31'0 0.0
2018-Jun-16 10:58N 54°33' E 018°31'0 0.0
2018-Jun-16 10:28N 54°33' E 018°31'0 0.0
2018-Jun-16 09:58N 54°33' E 018°31'0 0.0
2018-Jun-16 09:28N 54°33' E 018°31'0 0.0
2018-Jun-16 08:58N 54°33' E 018°31'0 0.0
2018-Jun-16 08:28N 54°33' E 018°31'0 0.0
2018-Jun-16 08:00N 54°33' E 018°31'3 5.4
2018-Jun-16 07:31N 54°32' E 018°35'612.0
2018-Jun-16 07:00N 54°32' E 018°46'713.0
2018-Jun-16 06:30N 54°37' E 018°54'714.3
2018-Jun-16 06:00N 54°44' E 018°57'612.9
2018-Jun-16 05:30N 54°49' E 018°51'714.7
2018-Jun-16 05:00N 54°53' E 018°41'713.9
2018-Jun-16 04:30N 54°55' E 018°29'714.9
2018-Jun-16 04:00N 54°55' E 018°16'714.7
2018-Jun-16 03:30N 54°54' E 018°03'714.7
2018-Jun-16 03:00N 54°54' E 017°51'814.6
2018-Jun-16 02:27N 54°53' E 017°37'1014.7
2018-Jun-16 01:46N 54°53' E 017°19'414.9
2018-Jun-16 01:30N 54°52' E 017°13'1414.7
2018-Jun-16 00:32N 54°48' E 016°49'5814.9
2018-Jun-15 20:37N 54°38' E 015°09'214.9
2018-Jun-15 20:30N 54°38' E 015°07'1114.8
2018-Jun-15 19:47N 54°37' E 014°48'414.8
2018-Jun-15 19:30N 54°36' E 014°41'814.8
2018-Jun-15 18:58N 54°35' E 014°27'1214.4
2018-Jun-15 18:07N 54°39' E 014°08'914.6
2018-Jun-15 17:30N 54°44' E 013°55'1815.0
2018-Jun-15 16:18N 54°55' E 013°30'1314.6
2018-Jun-15 15:23N 55°04' E 013°14'1214.5
2018-Jun-15 14:34N 55°12' E 012°58'114.6
2018-Jun-15 14:29N 55°13' E 012°56'714.6
2018-Jun-15 13:58N 55°17' E 012°45'511.7
2018-Jun-15 13:30N 55°21' E 012°38'613.0
2018-Jun-15 13:00N 55°27' E 012°40'713.1
2018-Jun-15 12:30N 55°33' E 012°42'714.3
2018-Jun-15 12:00N 55°41' E 012°41'714.7
2018-Jun-15 11:30N 55°48' E 012°42'714.9
2018-Jun-15 11:00N 55°55' E 012°39'612.6
2018-Jun-15 10:30N 56°01' E 012°42'0 1.0
2018-Jun-15 10:00N 56°02' E 012°42'0 0.0
2018-Jun-15 09:31N 56°02' E 012°42'0 0.0
2018-Jun-15 09:01N 56°02' E 012°42'0 0.0
2018-Jun-15 08:31N 56°02' E 012°42'0 0.0
2018-Jun-15 08:00N 56°02' E 012°42'0 0.0
2018-Jun-15 07:31N 56°02' E 012°42'0 0.0
2018-Jun-15 07:01N 56°02' E 012°42'0 0.0
2018-Jun-15 06:31N 56°02' E 012°42'0 0.0
2018-Jun-15 06:01N 56°02' E 012°42'0 0.0
2018-Jun-15 05:31N 56°02' E 012°41'0 0.0
2018-Jun-15 05:01N 56°02' E 012°41'0 0.0
2018-Jun-15 04:31N 56°02' E 012°42'0 0.0
2018-Jun-15 04:01N 56°02' E 012°42'0 0.0
2018-Jun-15 03:30N 56°02' E 012°42'0 0.0
2018-Jun-15 03:00N 56°02' E 012°42'0 0.0
2018-Jun-15 02:31N 56°02' E 012°42'0 0.1
2018-Jun-15 02:01N 56°02' E 012°41'0 0.1
2018-Jun-15 01:30N 56°02' E 012°42'0 0.0
2018-Jun-15 01:01N 56°02' E 012°42'0 0.0
2018-Jun-15 00:31N 56°02' E 012°42'0 0.0
2018-Jun-15 00:01N 56°02' E 012°42'0 0.0
2018-Jun-14 23:31N 56°02' E 012°42'0 0.0
2018-Jun-14 23:01N 56°02' E 012°42'0 0.0
2018-Jun-14 22:31N 56°02' E 012°42'0 0.0
2018-Jun-14 22:00N 56°02' E 012°42'0 0.0
2018-Jun-14 21:31N 56°02' E 012°42'0 0.0
2018-Jun-14 20:59N 56°02' E 012°42'0 0.0
2018-Jun-14 20:31N 56°02' E 012°42'0 0.0
2018-Jun-14 20:01N 56°02' E 012°42'1 2.6
2018-Jun-14 19:30N 56°00' E 012°42'3 5.3
2018-Jun-14 19:01N 56°03' E 012°39'5 9.6
2018-Jun-14 18:31N 56°06' E 012°33'83 9.7
2018-Jun-14 09:59N 57°21' E 011°28'510.2
2018-Jun-14 09:29N 57°26' E 011°25'510.0
2018-Jun-14 09:00N 57°30' E 011°19'510.8
2018-Jun-14 08:31N 57°33' E 011°12'612.4
2018-Jun-14 08:01N 57°38' E 011°04'43212.8
2018-Jun-12 22:07N 52°14' E 002°46'314.1
2018-Jun-12 21:54N 52°11' E 002°43'613.9
2018-Jun-12 21:26N 52°06' E 002°37'2613.2
2018-Jun-12 19:28N 51°46' E 002°10'612.4
2018-Jun-12 19:00N 51°42' E 002°04'612.9
2018-Jun-12 18:30N 51°37' E 001°57'713.2
2018-Jun-12 18:00N 51°33' E 001°48'713.9
2018-Jun-12 17:31N 51°30' E 001°38'612.7
2018-Jun-12 17:01N 51°25' E 001°33'3 5.1
2018-Jun-12 16:31N 51°26' E 001°29'510.3
2018-Jun-12 16:01N 51°28' E 001°22'510.7
2018-Jun-12 15:31N 51°29' E 001°13'612.4
2018-Jun-12 15:01N 51°30' E 001°03'816.4
2018-Jun-12 14:31N 51°29' E 000°50'917.5
2018-Jun-12 14:01N 51°30' E 000°36'612.7
2018-Jun-12 13:31N 51°28' E 000°27'4 8.4
2018-Jun-12 13:01N 51°27' E 000°20'0 0.1
2018-Jun-12 12:31N 51°27' E 000°20'0 0.0
2018-Jun-12 12:00N 51°27' E 000°20'0 0.0
2018-Jun-12 11:31N 51°27' E 000°20'0 0.0
2018-Jun-12 11:01N 51°27' E 000°20'0 0.0
2018-Jun-12 10:30N 51°27' E 000°20'0 0.0
2018-Jun-12 10:00N 51°27' E 000°20'0 0.0
2018-Jun-12 09:30N 51°27' E 000°20'0 0.0
2018-Jun-12 09:01N 51°27' E 000°20'0 0.0
2018-Jun-12 08:31N 51°27' E 000°20'  

Dump ship's entire track history